In Rescue
 
Open Full Screen Window  High Contrast Mode
Wind Gusting 00 knots
10
July 25, 2021 8:28 AM CDT
Weather Information
Wind Direction
  270 °
Wind Speed
  10 kt (12 mph)
Wind Gust
  00 kt (0 mph)
Altimeter
29.92 in
Visibility
10 SM
Temperature
20° C
68° F
Dewpoint
08° C
46° F
Humidity
46%
1hr Rain Fall
00.00 in.
24hr Rain Fall
00.00 in.
Sky Condition
Clear
VFR

METAR KROX 251328Z AUTO 27010KT 10SM CLR 20/08 A2992 RMK AO2

FAA Disclaimer: The data displayed is for advisory purposes only and is not to be used for flight planning or operations.